sensor_id;sensor_type;location;lat;lon;timestamp;P1;durP1;ratioP1;P2;durP2;ratioP2
479;SDS011;226;48.606;9.096;2023-12-20T00:02:18;1.53;;;1.43;;
479;SDS011;226;48.606;9.096;2023-12-20T00:04:46;1.70;;;1.60;;
479;SDS011;226;48.606;9.096;2023-12-20T00:07:15;1.30;;;1.30;;
479;SDS011;226;48.606;9.096;2023-12-20T00:09:43;1.27;;;1.23;;
479;SDS011;226;48.606;9.096;2023-12-20T00:12:11;1.97;;;1.87;;
479;SDS011;226;48.606;9.096;2023-12-20T00:14:40;1.77;;;1.67;;
479;SDS011;226;48.606;9.096;2023-12-20T00:17:09;1.40;;;1.30;;
479;SDS011;226;48.606;9.096;2023-12-20T00:19:37;2.20;;;2.10;;
479;SDS011;226;48.606;9.096;2023-12-20T00:22:06;2.13;;;1.50;;
479;SDS011;226;48.606;9.096;2023-12-20T00:24:34;1.40;;;1.40;;
479;SDS011;226;48.606;9.096;2023-12-20T00:27:02;2.10;;;2.00;;
479;SDS011;226;48.606;9.096;2023-12-20T00:29:31;1.80;;;1.70;;
479;SDS011;226;48.606;9.096;2023-12-20T00:31:59;1.70;;;1.60;;
479;SDS011;226;48.606;9.096;2023-12-20T00:34:29;1.40;;;1.40;;
479;SDS011;226;48.606;9.096;2023-12-20T00:36:57;1.77;;;1.60;;
479;SDS011;226;48.606;9.096;2023-12-20T00:39:25;1.70;;;1.60;;
479;SDS011;226;48.606;9.096;2023-12-20T00:41:53;1.90;;;1.73;;
479;SDS011;226;48.606;9.096;2023-12-20T00:44:21;1.97;;;1.87;;
479;SDS011;226;48.606;9.096;2023-12-20T00:46:49;1.77;;;1.67;;
479;SDS011;226;48.606;9.096;2023-12-20T00:49:17;1.73;;;1.63;;
479;SDS011;226;48.606;9.096;2023-12-20T00:51:47;2.20;;;1.97;;
479;SDS011;226;48.606;9.096;2023-12-20T00:54:17;1.37;;;1.27;;
479;SDS011;226;48.606;9.096;2023-12-20T00:56:45;1.43;;;1.33;;
479;SDS011;226;48.606;9.096;2023-12-20T00:59:13;1.57;;;1.37;;
479;SDS011;226;48.606;9.096;2023-12-20T01:01:41;2.13;;;1.60;;
479;SDS011;226;48.606;9.096;2023-12-20T01:04:10;1.83;;;1.73;;
479;SDS011;226;48.606;9.096;2023-12-20T01:06:38;1.20;;;1.20;;
479;SDS011;226;48.606;9.096;2023-12-20T01:09:08;3.00;;;1.70;;
479;SDS011;226;48.606;9.096;2023-12-20T01:11:36;1.43;;;1.13;;
479;SDS011;226;48.606;9.096;2023-12-20T01:14:04;1.57;;;1.47;;
479;SDS011;226;48.606;9.096;2023-12-20T01:16:32;1.67;;;1.60;;
479;SDS011;226;48.606;9.096;2023-12-20T01:19:01;1.70;;;1.60;;
479;SDS011;226;48.606;9.096;2023-12-20T01:21:29;1.87;;;1.77;;
479;SDS011;226;48.606;9.096;2023-12-20T01:23:57;1.40;;;1.40;;
479;SDS011;226;48.606;9.096;2023-12-20T01:26:27;1.50;;;1.40;;
479;SDS011;226;48.606;9.096;2023-12-20T01:28:55;1.30;;;1.30;;
479;SDS011;226;48.606;9.096;2023-12-20T01:31:23;1.67;;;1.60;;
479;SDS011;226;48.606;9.096;2023-12-20T01:33:53;1.50;;;1.40;;
479;SDS011;226;48.606;9.096;2023-12-20T01:36:22;1.63;;;1.53;;
479;SDS011;226;48.606;9.096;2023-12-20T01:38:50;1.83;;;1.70;;
479;SDS011;226;48.606;9.096;2023-12-20T01:41:18;2.03;;;1.83;;
479;SDS011;226;48.606;9.096;2023-12-20T01:43:48;1.50;;;1.40;;
479;SDS011;226;48.606;9.096;2023-12-20T01:46:17;1.80;;;1.70;;
479;SDS011;226;48.606;9.096;2023-12-20T01:48:47;1.93;;;1.83;;
479;SDS011;226;48.606;9.096;2023-12-20T01:51:16;1.43;;;1.37;;
479;SDS011;226;48.606;9.096;2023-12-20T01:53:45;1.80;;;1.67;;
479;SDS011;226;48.606;9.096;2023-12-20T01:56:14;1.50;;;1.40;;
479;SDS011;226;48.606;9.096;2023-12-20T01:58:44;2.07;;;1.97;;
479;SDS011;226;48.606;9.096;2023-12-20T02:01:15;1.60;;;1.60;;
479;SDS011;226;48.606;9.096;2023-12-20T02:03:44;1.90;;;1.80;;
479;SDS011;226;48.606;9.096;2023-12-20T02:06:13;1.53;;;1.30;;
479;SDS011;226;48.606;9.096;2023-12-20T02:08:42;1.03;;;1.03;;
479;SDS011;226;48.606;9.096;2023-12-20T02:11:10;5.13;;;2.37;;
479;SDS011;226;48.606;9.096;2023-12-20T02:13:38;1.70;;;1.70;;
479;SDS011;226;48.606;9.096;2023-12-20T02:16:07;1.90;;;1.83;;
479;SDS011;226;48.606;9.096;2023-12-20T02:18:36;2.10;;;1.27;;
479;SDS011;226;48.606;9.096;2023-12-20T02:21:05;1.80;;;1.40;;
479;SDS011;226;48.606;9.096;2023-12-20T02:23:34;1.77;;;1.50;;
479;SDS011;226;48.606;9.096;2023-12-20T02:26:03;1.60;;;1.60;;
479;SDS011;226;48.606;9.096;2023-12-20T02:28:32;1.50;;;1.50;;
479;SDS011;226;48.606;9.096;2023-12-20T02:31:01;1.73;;;1.63;;
479;SDS011;226;48.606;9.096;2023-12-20T02:33:30;2.40;;;1.87;;
479;SDS011;226;48.606;9.096;2023-12-20T02:35:58;1.37;;;1.27;;
479;SDS011;226;48.606;9.096;2023-12-20T02:38:26;1.83;;;1.13;;
479;SDS011;226;48.606;9.096;2023-12-20T02:40:56;1.50;;;1.37;;
479;SDS011;226;48.606;9.096;2023-12-20T02:43:24;1.10;;;1.10;;
479;SDS011;226;48.606;9.096;2023-12-20T02:45:52;1.33;;;1.33;;
479;SDS011;226;48.606;9.096;2023-12-20T02:48:21;1.43;;;1.43;;
479;SDS011;226;48.606;9.096;2023-12-20T02:50:50;1.10;;;1.10;;
479;SDS011;226;48.606;9.096;2023-12-20T02:53:18;1.00;;;1.00;;
479;SDS011;226;48.606;9.096;2023-12-20T02:55:46;1.33;;;1.33;;
479;SDS011;226;48.606;9.096;2023-12-20T02:58:16;1.03;;;1.00;;
479;SDS011;226;48.606;9.096;2023-12-20T03:00:45;1.20;;;1.20;;
479;SDS011;226;48.606;9.096;2023-12-20T03:03:13;1.00;;;1.00;;
479;SDS011;226;48.606;9.096;2023-12-20T03:05:41;1.23;;;1.20;;
479;SDS011;226;48.606;9.096;2023-12-20T03:08:10;1.40;;;1.40;;
479;SDS011;226;48.606;9.096;2023-12-20T03:10:38;1.33;;;1.27;;
479;SDS011;226;48.606;9.096;2023-12-20T03:13:06;1.40;;;1.33;;
479;SDS011;226;48.606;9.096;2023-12-20T03:15:36;1.20;;;1.20;;
479;SDS011;226;48.606;9.096;2023-12-20T03:18:04;1.10;;;1.10;;
479;SDS011;226;48.606;9.096;2023-12-20T03:20:32;4.93;;;1.30;;
479;SDS011;226;48.606;9.096;2023-12-20T03:23:01;1.13;;;1.13;;
479;SDS011;226;48.606;9.096;2023-12-20T03:25:29;1.23;;;1.23;;
479;SDS011;226;48.606;9.096;2023-12-20T03:27:58;1.20;;;1.20;;
479;SDS011;226;48.606;9.096;2023-12-20T03:30:26;0.90;;;0.90;;
479;SDS011;226;48.606;9.096;2023-12-20T03:32:56;1.10;;;1.00;;
479;SDS011;226;48.606;9.096;2023-12-20T03:35:24;1.17;;;1.17;;
479;SDS011;226;48.606;9.096;2023-12-20T03:37:52;1.37;;;1.27;;
479;SDS011;226;48.606;9.096;2023-12-20T03:40:20;0.97;;;0.97;;
479;SDS011;226;48.606;9.096;2023-12-20T03:42:49;1.17;;;1.17;;
479;SDS011;226;48.606;9.096;2023-12-20T03:45:17;1.10;;;1.10;;
479;SDS011;226;48.606;9.096;2023-12-20T03:47:45;1.27;;;1.17;;
479;SDS011;226;48.606;9.096;2023-12-20T03:50:16;1.60;;;1.20;;
479;SDS011;226;48.606;9.096;2023-12-20T03:52:44;1.00;;;1.00;;
479;SDS011;226;48.606;9.096;2023-12-20T03:55:12;1.27;;;1.27;;
479;SDS011;226;48.606;9.096;2023-12-20T03:57:41;1.13;;;1.13;;
479;SDS011;226;48.606;9.096;2023-12-20T04:00:10;1.03;;;1.03;;
479;SDS011;226;48.606;9.096;2023-12-20T04:02:45;1.00;;;1.00;;
479;SDS011;226;48.606;9.096;2023-12-20T04:05:13;1.00;;;1.00;;
479;SDS011;226;48.606;9.096;2023-12-20T04:07:42;1.00;;;1.00;;
479;SDS011;226;48.606;9.096;2023-12-20T04:10:11;3.80;;;0.97;;
479;SDS011;226;48.606;9.096;2023-12-20T04:12:39;1.53;;;1.53;;
479;SDS011;226;48.606;9.096;2023-12-20T04:15:08;1.03;;;1.00;;
479;SDS011;226;48.606;9.096;2023-12-20T04:17:38;1.00;;;1.00;;
479;SDS011;226;48.606;9.096;2023-12-20T04:20:07;1.00;;;1.00;;
479;SDS011;226;48.606;9.096;2023-12-20T04:22:36;1.00;;;1.00;;
479;SDS011;226;48.606;9.096;2023-12-20T04:25:06;1.17;;;1.17;;
479;SDS011;226;48.606;9.096;2023-12-20T04:27:34;0.83;;;0.83;;
479;SDS011;226;48.606;9.096;2023-12-20T04:30:03;1.07;;;1.07;;
479;SDS011;226;48.606;9.096;2023-12-20T04:32:32;1.00;;;1.00;;
479;SDS011;226;48.606;9.096;2023-12-20T04:35:00;1.10;;;1.10;;
479;SDS011;226;48.606;9.096;2023-12-20T04:37:29;1.30;;;1.30;;
479;SDS011;226;48.606;9.096;2023-12-20T04:39:57;1.40;;;0.90;;
479;SDS011;226;48.606;9.096;2023-12-20T04:42:26;1.00;;;0.97;;
479;SDS011;226;48.606;9.096;2023-12-20T04:44:55;0.93;;;0.93;;
479;SDS011;226;48.606;9.096;2023-12-20T04:47:23;1.00;;;1.00;;
479;SDS011;226;48.606;9.096;2023-12-20T04:49:51;1.17;;;1.17;;
479;SDS011;226;48.606;9.096;2023-12-20T04:52:19;0.90;;;0.90;;
479;SDS011;226;48.606;9.096;2023-12-20T04:54:48;1.10;;;1.10;;
479;SDS011;226;48.606;9.096;2023-12-20T04:57:16;1.03;;;1.03;;
479;SDS011;226;48.606;9.096;2023-12-20T04:59:46;1.20;;;1.10;;
479;SDS011;226;48.606;9.096;2023-12-20T05:02:14;0.83;;;0.83;;
479;SDS011;226;48.606;9.096;2023-12-20T05:04:41;2.70;;;1.20;;
479;SDS011;226;48.606;9.096;2023-12-20T05:07:10;0.90;;;0.90;;
479;SDS011;226;48.606;9.096;2023-12-20T05:09:38;1.23;;;1.10;;
479;SDS011;226;48.606;9.096;2023-12-20T05:12:07;0.90;;;0.90;;
479;SDS011;226;48.606;9.096;2023-12-20T05:14:35;0.90;;;0.90;;
479;SDS011;226;48.606;9.096;2023-12-20T05:17:05;1.10;;;1.10;;
479;SDS011;226;48.606;9.096;2023-12-20T05:19:34;0.93;;;0.93;;
479;SDS011;226;48.606;9.096;2023-12-20T05:22:02;0.80;;;0.80;;
479;SDS011;226;48.606;9.096;2023-12-20T05:24:31;1.20;;;1.20;;
479;SDS011;226;48.606;9.096;2023-12-20T05:26:59;1.27;;;1.27;;
479;SDS011;226;48.606;9.096;2023-12-20T05:29:27;1.50;;;1.50;;
479;SDS011;226;48.606;9.096;2023-12-20T05:31:57;1.60;;;1.60;;
479;SDS011;226;48.606;9.096;2023-12-20T05:34:27;1.40;;;1.30;;
479;SDS011;226;48.606;9.096;2023-12-20T05:36:55;1.20;;;1.20;;
479;SDS011;226;48.606;9.096;2023-12-20T05:39:25;0.93;;;0.93;;
479;SDS011;226;48.606;9.096;2023-12-20T05:41:53;2.40;;;1.57;;
479;SDS011;226;48.606;9.096;2023-12-20T05:44:21;1.03;;;1.03;;
479;SDS011;226;48.606;9.096;2023-12-20T05:46:49;1.23;;;1.13;;
479;SDS011;226;48.606;9.096;2023-12-20T05:49:17;1.13;;;1.13;;
479;SDS011;226;48.606;9.096;2023-12-20T05:51:47;1.10;;;1.10;;
479;SDS011;226;48.606;9.096;2023-12-20T05:54:16;1.03;;;1.03;;
479;SDS011;226;48.606;9.096;2023-12-20T05:56:44;2.17;;;2.03;;
479;SDS011;226;48.606;9.096;2023-12-20T05:59:12;4.23;;;1.20;;
479;SDS011;226;48.606;9.096;2023-12-20T06:01:41;1.77;;;1.77;;
479;SDS011;226;48.606;9.096;2023-12-20T06:04:09;2.67;;;1.30;;
479;SDS011;226;48.606;9.096;2023-12-20T06:06:40;1.23;;;1.23;;
479;SDS011;226;48.606;9.096;2023-12-20T06:09:10;1.20;;;1.17;;
479;SDS011;226;48.606;9.096;2023-12-20T06:11:39;1.33;;;1.33;;
479;SDS011;226;48.606;9.096;2023-12-20T06:14:07;2.70;;;0.90;;
479;SDS011;226;48.606;9.096;2023-12-20T06:16:35;1.20;;;1.20;;
479;SDS011;226;48.606;9.096;2023-12-20T06:19:04;1.40;;;1.30;;
479;SDS011;226;48.606;9.096;2023-12-20T06:21:32;1.60;;;1.50;;
479;SDS011;226;48.606;9.096;2023-12-20T06:24:00;1.80;;;1.50;;
479;SDS011;226;48.606;9.096;2023-12-20T06:26:30;2.63;;;1.37;;
479;SDS011;226;48.606;9.096;2023-12-20T06:28:58;1.30;;;1.30;;
479;SDS011;226;48.606;9.096;2023-12-20T06:31:26;1.07;;;1.07;;
479;SDS011;226;48.606;9.096;2023-12-20T06:33:55;3.37;;;1.70;;
479;SDS011;226;48.606;9.096;2023-12-20T06:36:26;1.30;;;1.30;;
479;SDS011;226;48.606;9.096;2023-12-20T06:38:54;1.30;;;1.20;;
479;SDS011;226;48.606;9.096;2023-12-20T06:41:23;1.40;;;1.40;;
479;SDS011;226;48.606;9.096;2023-12-20T06:43:53;1.00;;;1.00;;
479;SDS011;226;48.606;9.096;2023-12-20T06:46:21;1.67;;;1.60;;
479;SDS011;226;48.606;9.096;2023-12-20T06:48:49;2.73;;;1.80;;
479;SDS011;226;48.606;9.096;2023-12-20T06:51:18;1.83;;;1.73;;
479;SDS011;226;48.606;9.096;2023-12-20T06:53:47;2.27;;;2.07;;
479;SDS011;226;48.606;9.096;2023-12-20T06:56:15;1.73;;;1.73;;
479;SDS011;226;48.606;9.096;2023-12-20T06:58:45;1.80;;;1.70;;
479;SDS011;226;48.606;9.096;2023-12-20T07:01:15;1.10;;;1.10;;
479;SDS011;226;48.606;9.096;2023-12-20T07:03:44;1.53;;;1.43;;
479;SDS011;226;48.606;9.096;2023-12-20T07:06:13;1.60;;;1.50;;
479;SDS011;226;48.606;9.096;2023-12-20T07:08:43;1.50;;;1.50;;
479;SDS011;226;48.606;9.096;2023-12-20T07:11:11;1.23;;;1.20;;
479;SDS011;226;48.606;9.096;2023-12-20T07:13:39;1.33;;;1.33;;
479;SDS011;226;48.606;9.096;2023-12-20T07:16:08;1.97;;;1.87;;
479;SDS011;226;48.606;9.096;2023-12-20T07:18:37;1.70;;;1.60;;
479;SDS011;226;48.606;9.096;2023-12-20T07:21:05;0.90;;;0.90;;
479;SDS011;226;48.606;9.096;2023-12-20T07:23:34;2.33;;;1.77;;
479;SDS011;226;48.606;9.096;2023-12-20T07:26:02;1.40;;;1.37;;
479;SDS011;226;48.606;9.096;2023-12-20T07:28:31;2.20;;;1.63;;
479;SDS011;226;48.606;9.096;2023-12-20T07:31:00;1.77;;;1.70;;
479;SDS011;226;48.606;9.096;2023-12-20T07:33:28;1.50;;;1.50;;
479;SDS011;226;48.606;9.096;2023-12-20T07:36:06;2.20;;;1.60;;
479;SDS011;226;48.606;9.096;2023-12-20T07:38:35;1.37;;;1.37;;
479;SDS011;226;48.606;9.096;2023-12-20T07:41:03;1.70;;;1.67;;
479;SDS011;226;48.606;9.096;2023-12-20T07:43:32;1.83;;;1.73;;
479;SDS011;226;48.606;9.096;2023-12-20T07:46:03;1.27;;;1.17;;
479;SDS011;226;48.606;9.096;2023-12-20T07:48:33;2.60;;;2.07;;
479;SDS011;226;48.606;9.096;2023-12-20T07:51:02;1.50;;;1.50;;
479;SDS011;226;48.606;9.096;2023-12-20T07:53:34;1.90;;;1.80;;
479;SDS011;226;48.606;9.096;2023-12-20T07:56:02;1.93;;;1.83;;
479;SDS011;226;48.606;9.096;2023-12-20T07:58:41;1.07;;;1.07;;
479;SDS011;226;48.606;9.096;2023-12-20T08:01:18;1.20;;;1.20;;
479;SDS011;226;48.606;9.096;2023-12-20T08:03:48;2.87;;;2.10;;
479;SDS011;226;48.606;9.096;2023-12-20T08:06:17;1.40;;;1.40;;
479;SDS011;226;48.606;9.096;2023-12-20T08:08:47;1.33;;;1.23;;
479;SDS011;226;48.606;9.096;2023-12-20T08:11:27;1.10;;;1.10;;
479;SDS011;226;48.606;9.096;2023-12-20T08:13:56;1.20;;;1.20;;
479;SDS011;226;48.606;9.096;2023-12-20T08:16:25;1.20;;;1.20;;
479;SDS011;226;48.606;9.096;2023-12-20T08:18:53;1.50;;;1.40;;
479;SDS011;226;48.606;9.096;2023-12-20T08:21:22;1.63;;;1.63;;
479;SDS011;226;48.606;9.096;2023-12-20T08:23:51;1.30;;;1.30;;
479;SDS011;226;48.606;9.096;2023-12-20T08:26:19;1.00;;;1.00;;
479;SDS011;226;48.606;9.096;2023-12-20T08:28:49;1.50;;;1.50;;
479;SDS011;226;48.606;9.096;2023-12-20T08:31:18;3.50;;;1.50;;
479;SDS011;226;48.606;9.096;2023-12-20T08:33:48;1.60;;;1.57;;
479;SDS011;226;48.606;9.096;2023-12-20T08:36:17;1.60;;;1.50;;
479;SDS011;226;48.606;9.096;2023-12-20T08:38:45;1.60;;;1.50;;
479;SDS011;226;48.606;9.096;2023-12-20T08:41:15;3.40;;;3.10;;
479;SDS011;226;48.606;9.096;2023-12-20T08:43:43;2.50;;;1.73;;
479;SDS011;226;48.606;9.096;2023-12-20T08:46:11;1.80;;;1.23;;
479;SDS011;226;48.606;9.096;2023-12-20T08:48:41;1.80;;;1.70;;
479;SDS011;226;48.606;9.096;2023-12-20T08:51:09;1.70;;;1.60;;
479;SDS011;226;48.606;9.096;2023-12-20T08:53:38;1.93;;;1.80;;
479;SDS011;226;48.606;9.096;2023-12-20T08:56:06;1.70;;;1.70;;
479;SDS011;226;48.606;9.096;2023-12-20T08:58:36;1.70;;;1.60;;
479;SDS011;226;48.606;9.096;2023-12-20T09:01:04;1.60;;;1.60;;
479;SDS011;226;48.606;9.096;2023-12-20T09:03:34;2.30;;;2.17;;
479;SDS011;226;48.606;9.096;2023-12-20T09:06:02;3.50;;;2.60;;
479;SDS011;226;48.606;9.096;2023-12-20T09:08:31;1.87;;;1.77;;
479;SDS011;226;48.606;9.096;2023-12-20T09:11:00;5.87;;;2.20;;
479;SDS011;226;48.606;9.096;2023-12-20T09:13:29;3.07;;;2.73;;
479;SDS011;226;48.606;9.096;2023-12-20T09:15:59;6.10;;;2.53;;
479;SDS011;226;48.606;9.096;2023-12-20T09:18:28;2.87;;;2.67;;
479;SDS011;226;48.606;9.096;2023-12-20T09:20:56;2.47;;;2.20;;
479;SDS011;226;48.606;9.096;2023-12-20T09:23:24;1.97;;;1.87;;
479;SDS011;226;48.606;9.096;2023-12-20T09:25:53;5.07;;;2.20;;
479;SDS011;226;48.606;9.096;2023-12-20T09:28:23;6.23;;;2.80;;
479;SDS011;226;48.606;9.096;2023-12-20T09:30:52;2.40;;;2.20;;
479;SDS011;226;48.606;9.096;2023-12-20T09:33:22;2.70;;;2.50;;
479;SDS011;226;48.606;9.096;2023-12-20T09:35:51;3.40;;;2.13;;
479;SDS011;226;48.606;9.096;2023-12-20T09:38:20;2.53;;;2.40;;
479;SDS011;226;48.606;9.096;2023-12-20T09:40:48;2.13;;;1.97;;
479;SDS011;226;48.606;9.096;2023-12-20T09:43:18;4.20;;;3.00;;
479;SDS011;226;48.606;9.096;2023-12-20T09:45:47;1.97;;;1.83;;
479;SDS011;226;48.606;9.096;2023-12-20T09:48:16;1.53;;;1.53;;
479;SDS011;226;48.606;9.096;2023-12-20T09:50:48;4.87;;;2.30;;
479;SDS011;226;48.606;9.096;2023-12-20T09:53:19;2.73;;;1.60;;
479;SDS011;226;48.606;9.096;2023-12-20T09:55:50;7.80;;;1.67;;
479;SDS011;226;48.606;9.096;2023-12-20T09:58:20;2.57;;;1.90;;
479;SDS011;226;48.606;9.096;2023-12-20T10:00:48;2.13;;;2.03;;
479;SDS011;226;48.606;9.096;2023-12-20T10:03:17;2.70;;;2.37;;
479;SDS011;226;48.606;9.096;2023-12-20T10:05:52;6.90;;;2.00;;
479;SDS011;226;48.606;9.096;2023-12-20T10:08:24;1.53;;;1.53;;
479;SDS011;226;48.606;9.096;2023-12-20T10:10:52;4.00;;;2.23;;
479;SDS011;226;48.606;9.096;2023-12-20T10:13:21;2.53;;;2.23;;
479;SDS011;226;48.606;9.096;2023-12-20T10:15:50;3.40;;;2.40;;
479;SDS011;226;48.606;9.096;2023-12-20T10:18:18;3.40;;;1.90;;
479;SDS011;226;48.606;9.096;2023-12-20T10:20:47;10.63;;;3.30;;
479;SDS011;226;48.606;9.096;2023-12-20T10:23:17;2.47;;;2.27;;
479;SDS011;226;48.606;9.096;2023-12-20T10:25:55;3.17;;;2.80;;
479;SDS011;226;48.606;9.096;2023-12-20T10:28:24;2.90;;;2.57;;
479;SDS011;226;48.606;9.096;2023-12-20T10:30:54;2.03;;;1.90;;
479;SDS011;226;48.606;9.096;2023-12-20T10:33:28;7.33;;;2.60;;
479;SDS011;226;48.606;9.096;2023-12-20T10:36:02;3.53;;;1.67;;
479;SDS011;226;48.606;9.096;2023-12-20T10:38:35;2.37;;;2.23;;
479;SDS011;226;48.606;9.096;2023-12-20T10:41:07;4.77;;;2.27;;
479;SDS011;226;48.606;9.096;2023-12-20T10:43:37;2.20;;;1.97;;
479;SDS011;226;48.606;9.096;2023-12-20T10:46:06;4.60;;;2.10;;
479;SDS011;226;48.606;9.096;2023-12-20T10:48:35;2.00;;;1.90;;
479;SDS011;226;48.606;9.096;2023-12-20T10:51:05;2.20;;;1.70;;
479;SDS011;226;48.606;9.096;2023-12-20T10:53:34;1.80;;;1.70;;
479;SDS011;226;48.606;9.096;2023-12-20T10:56:06;3.47;;;2.60;;
479;SDS011;226;48.606;9.096;2023-12-20T10:58:39;2.37;;;2.23;;
479;SDS011;226;48.606;9.096;2023-12-20T11:01:10;1.97;;;1.87;;
479;SDS011;226;48.606;9.096;2023-12-20T11:03:43;2.03;;;1.70;;
479;SDS011;226;48.606;9.096;2023-12-20T11:06:19;3.03;;;2.17;;
479;SDS011;226;48.606;9.096;2023-12-20T11:09:01;1.73;;;1.63;;
479;SDS011;226;48.606;9.096;2023-12-20T11:11:45;1.90;;;1.77;;
479;SDS011;226;48.606;9.096;2023-12-20T11:14:31;6.60;;;1.70;;
479;SDS011;226;48.606;9.096;2023-12-20T11:17:11;3.53;;;1.80;;
479;SDS011;226;48.606;9.096;2023-12-20T11:19:43;3.90;;;1.87;;
479;SDS011;226;48.606;9.096;2023-12-20T11:22:33;2.40;;;2.30;;
479;SDS011;226;48.606;9.096;2023-12-20T11:25:09;1.90;;;1.80;;
479;SDS011;226;48.606;9.096;2023-12-20T11:27:40;1.60;;;1.50;;
479;SDS011;226;48.606;9.096;2023-12-20T11:30:13;2.30;;;2.10;;
479;SDS011;226;48.606;9.096;2023-12-20T11:32:43;3.27;;;1.83;;
479;SDS011;226;48.606;9.096;2023-12-20T11:35:17;2.37;;;1.70;;
479;SDS011;226;48.606;9.096;2023-12-20T11:37:47;2.20;;;1.70;;
479;SDS011;226;48.606;9.096;2023-12-20T11:40:18;4.20;;;1.83;;
479;SDS011;226;48.606;9.096;2023-12-20T11:42:49;2.67;;;2.43;;
479;SDS011;226;48.606;9.096;2023-12-20T11:45:19;2.47;;;2.27;;
479;SDS011;226;48.606;9.096;2023-12-20T11:47:50;2.10;;;2.00;;
479;SDS011;226;48.606;9.096;2023-12-20T11:50:21;13.90;;;2.53;;
479;SDS011;226;48.606;9.096;2023-12-20T11:52:51;6.73;;;2.13;;
479;SDS011;226;48.606;9.096;2023-12-20T11:55:21;9.53;;;2.10;;
479;SDS011;226;48.606;9.096;2023-12-20T11:57:50;5.10;;;2.20;;
479;SDS011;226;48.606;9.096;2023-12-20T12:00:19;10.03;;;2.20;;
479;SDS011;226;48.606;9.096;2023-12-20T12:02:57;1.67;;;1.67;;
479;SDS011;226;48.606;9.096;2023-12-20T12:05:27;1.53;;;1.50;;
479;SDS011;226;48.606;9.096;2023-12-20T12:07:55;2.40;;;1.67;;
479;SDS011;226;48.606;9.096;2023-12-20T12:10:25;2.33;;;2.17;;
479;SDS011;226;48.606;9.096;2023-12-20T12:12:53;2.20;;;2.10;;
479;SDS011;226;48.606;9.096;2023-12-20T12:15:22;2.03;;;1.80;;
479;SDS011;226;48.606;9.096;2023-12-20T12:17:53;3.23;;;2.07;;
479;SDS011;226;48.606;9.096;2023-12-20T12:20:22;1.77;;;1.67;;
479;SDS011;226;48.606;9.096;2023-12-20T12:22:57;6.17;;;2.77;;
479;SDS011;226;48.606;9.096;2023-12-20T12:25:28;1.80;;;1.80;;
479;SDS011;226;48.606;9.096;2023-12-20T12:27:57;4.00;;;2.20;;
479;SDS011;226;48.606;9.096;2023-12-20T12:30:26;5.27;;;2.40;;
479;SDS011;226;48.606;9.096;2023-12-20T12:33:04;4.40;;;1.80;;
479;SDS011;226;48.606;9.096;2023-12-20T12:35:33;3.97;;;2.73;;
479;SDS011;226;48.606;9.096;2023-12-20T12:38:02;1.90;;;1.90;;
479;SDS011;226;48.606;9.096;2023-12-20T12:40:34;2.70;;;2.60;;
479;SDS011;226;48.606;9.096;2023-12-20T12:43:03;2.80;;;1.77;;
479;SDS011;226;48.606;9.096;2023-12-20T12:45:33;1.80;;;1.70;;
479;SDS011;226;48.606;9.096;2023-12-20T12:48:01;2.53;;;2.33;;
479;SDS011;226;48.606;9.096;2023-12-20T12:50:30;2.40;;;2.20;;
479;SDS011;226;48.606;9.096;2023-12-20T12:52:58;3.43;;;2.10;;
479;SDS011;226;48.606;9.096;2023-12-20T12:55:26;2.23;;;2.13;;
479;SDS011;226;48.606;9.096;2023-12-20T12:57:56;2.57;;;2.00;;
479;SDS011;226;48.606;9.096;2023-12-20T13:00:24;4.30;;;2.30;;
479;SDS011;226;48.606;9.096;2023-12-20T13:02:53;3.80;;;2.00;;
479;SDS011;226;48.606;9.096;2023-12-20T13:05:21;2.13;;;1.80;;
479;SDS011;226;48.606;9.096;2023-12-20T13:07:49;2.03;;;1.93;;
479;SDS011;226;48.606;9.096;2023-12-20T13:10:18;3.50;;;2.10;;
479;SDS011;226;48.606;9.096;2023-12-20T13:12:46;8.83;;;2.33;;
479;SDS011;226;48.606;9.096;2023-12-20T13:15:16;4.53;;;2.00;;
479;SDS011;226;48.606;9.096;2023-12-20T13:17:45;12.67;;;2.23;;
479;SDS011;226;48.606;9.096;2023-12-20T13:20:14;7.43;;;3.73;;
479;SDS011;226;48.606;9.096;2023-12-20T13:22:43;5.33;;;3.00;;
479;SDS011;226;48.606;9.096;2023-12-20T13:25:11;13.13;;;2.77;;
479;SDS011;226;48.606;9.096;2023-12-20T13:27:40;7.43;;;2.90;;
479;SDS011;226;48.606;9.096;2023-12-20T13:30:10;1.87;;;1.77;;
479;SDS011;226;48.606;9.096;2023-12-20T13:32:40;4.50;;;2.20;;
479;SDS011;226;48.606;9.096;2023-12-20T13:35:09;5.53;;;2.37;;
479;SDS011;226;48.606;9.096;2023-12-20T13:37:38;1.87;;;1.77;;
479;SDS011;226;48.606;9.096;2023-12-20T13:40:07;1.90;;;1.70;;
479;SDS011;226;48.606;9.096;2023-12-20T13:42:36;5.73;;;2.47;;
479;SDS011;226;48.606;9.096;2023-12-20T13:45:05;10.70;;;2.10;;
479;SDS011;226;48.606;9.096;2023-12-20T13:47:35;2.33;;;2.23;;
479;SDS011;226;48.606;9.096;2023-12-20T13:50:05;2.40;;;2.07;;
479;SDS011;226;48.606;9.096;2023-12-20T13:52:35;6.80;;;2.20;;
479;SDS011;226;48.606;9.096;2023-12-20T13:55:05;7.87;;;2.20;;
479;SDS011;226;48.606;9.096;2023-12-20T13:57:35;2.60;;;2.50;;
479;SDS011;226;48.606;9.096;2023-12-20T14:00:20;2.23;;;2.03;;
479;SDS011;226;48.606;9.096;2023-12-20T14:02:49;4.10;;;1.63;;
479;SDS011;226;48.606;9.096;2023-12-20T14:05:19;1.77;;;1.67;;
479;SDS011;226;48.606;9.096;2023-12-20T14:07:54;2.43;;;1.70;;
479;SDS011;226;48.606;9.096;2023-12-20T14:10:24;2.10;;;2.00;;
479;SDS011;226;48.606;9.096;2023-12-20T14:12:54;5.93;;;2.37;;
479;SDS011;226;48.606;9.096;2023-12-20T14:15:22;1.87;;;1.77;;
479;SDS011;226;48.606;9.096;2023-12-20T14:17:52;2.07;;;1.83;;
479;SDS011;226;48.606;9.096;2023-12-20T14:20:22;3.60;;;2.93;;
479;SDS011;226;48.606;9.096;2023-12-20T14:22:51;1.83;;;1.47;;
479;SDS011;226;48.606;9.096;2023-12-20T14:25:19;1.83;;;1.73;;
479;SDS011;226;48.606;9.096;2023-12-20T14:27:49;2.23;;;2.10;;
479;SDS011;226;48.606;9.096;2023-12-20T14:30:18;2.07;;;1.97;;
479;SDS011;226;48.606;9.096;2023-12-20T14:32:46;2.10;;;1.77;;
479;SDS011;226;48.606;9.096;2023-12-20T14:35:15;9.93;;;2.23;;
479;SDS011;226;48.606;9.096;2023-12-20T14:37:45;2.27;;;2.03;;
479;SDS011;226;48.606;9.096;2023-12-20T14:40:13;4.40;;;2.07;;
479;SDS011;226;48.606;9.096;2023-12-20T14:42:44;3.73;;;1.50;;
479;SDS011;226;48.606;9.096;2023-12-20T14:45:14;2.80;;;2.60;;
479;SDS011;226;48.606;9.096;2023-12-20T14:47:42;6.10;;;1.93;;
479;SDS011;226;48.606;9.096;2023-12-20T14:50:12;3.60;;;3.07;;
479;SDS011;226;48.606;9.096;2023-12-20T14:52:46;2.10;;;1.93;;
479;SDS011;226;48.606;9.096;2023-12-20T14:55:15;6.03;;;2.03;;
479;SDS011;226;48.606;9.096;2023-12-20T14:57:43;2.17;;;2.07;;
479;SDS011;226;48.606;9.096;2023-12-20T15:00:12;6.80;;;4.40;;
479;SDS011;226;48.606;9.096;2023-12-20T15:02:43;2.63;;;2.20;;
479;SDS011;226;48.606;9.096;2023-12-20T15:05:11;4.10;;;2.33;;
479;SDS011;226;48.606;9.096;2023-12-20T15:07:40;3.30;;;1.90;;
479;SDS011;226;48.606;9.096;2023-12-20T15:10:10;2.07;;;1.93;;
479;SDS011;226;48.606;9.096;2023-12-20T15:12:39;3.33;;;2.90;;
479;SDS011;226;48.606;9.096;2023-12-20T15:15:07;2.57;;;2.37;;
479;SDS011;226;48.606;9.096;2023-12-20T15:17:37;16.17;;;3.80;;
479;SDS011;226;48.606;9.096;2023-12-20T15:20:05;4.43;;;4.03;;
479;SDS011;226;48.606;9.096;2023-12-20T15:22:35;6.90;;;2.23;;
479;SDS011;226;48.606;9.096;2023-12-20T15:25:04;3.63;;;2.23;;
479;SDS011;226;48.606;9.096;2023-12-20T15:27:36;4.13;;;2.27;;
479;SDS011;226;48.606;9.096;2023-12-20T15:30:05;2.67;;;2.47;;
479;SDS011;226;48.606;9.096;2023-12-20T15:32:36;4.53;;;2.50;;
479;SDS011;226;48.606;9.096;2023-12-20T15:35:05;2.53;;;2.43;;
479;SDS011;226;48.606;9.096;2023-12-20T15:37:35;1.90;;;1.80;;
479;SDS011;226;48.606;9.096;2023-12-20T15:40:06;2.70;;;2.50;;
479;SDS011;226;48.606;9.096;2023-12-20T15:42:38;6.00;;;1.70;;
479;SDS011;226;48.606;9.096;2023-12-20T15:45:07;5.13;;;2.50;;
479;SDS011;226;48.606;9.096;2023-12-20T15:47:36;4.90;;;2.57;;
479;SDS011;226;48.606;9.096;2023-12-20T15:50:05;4.60;;;2.10;;
479;SDS011;226;48.606;9.096;2023-12-20T15:52:35;2.70;;;2.30;;
479;SDS011;226;48.606;9.096;2023-12-20T15:55:04;3.33;;;2.60;;
479;SDS011;226;48.606;9.096;2023-12-20T15:57:34;2.43;;;2.20;;
479;SDS011;226;48.606;9.096;2023-12-20T16:00:19;5.03;;;2.13;;